PWSweather.com
Personal Weather Stations
Station Observations
KWABLAIN13
Ptl Weather, Blaine, WA

Ptl WeatherBlaine, WA

Lat: 48.997393, Lon: -122.748614

Elevation: 57

Station Type: Davis Advantage Pro 2

http://www.ptlnet.net

High Low Average
Temperature 54.2°F12.3°F 43.2°F6.2°F 46.9°F8.3°F
Dew Point 46.5°F8.1°F 41.6°F5.3°F 43.8°F6.6°F
Winds 13.0 mph SW20.9 mph SW Calm Calm 3.2 mph 5.1 mph
Wind Gusts 19.0 mph30.6 mph -- 7.3 mph11.7 mph
Humidity 95% 72% 89%
Pressure 29.94 in1013.90 in 29.74 in1007.10 in -
Precipitation 1.15 in29.20 in - -
Hour Temp Dew Point Humidity Winds Wind Gusts Pressure Precip Precip Rate Daily Precip Total
12:04 AM 45.1°F7.3°C 43.8°F6.6°C 95% 3.0 mph ENE4.8 kmh ENE 6.0 mph9.7 kmh 29.83 in1010.2 mb 0.07 in1.8 mm 1.05 in26.7 mm 0.07 in1.8 mm
12:10 AM 45.1°F7.3°C 43.8°F6.6°C 95% 2.0 mph NE3.2 kmh NE 2.0 mph3.2 kmh 29.83 in1010.2 mb 0.06 in1.5 mm 0.00 in0.0 mm 0.07 in1.8 mm
12:25 AM 44.8°F7.1°C 43.5°F6.4°C 95% 3.0 mph ENE4.8 kmh ENE 4.0 mph6.4 kmh 29.82 in1009.8 mb 0.07 in1.8 mm 0.04 in1.0 mm 0.08 in2.0 mm
12:30 AM 44.7°F7.1°C 43.1°F6.2°C 94% 3.0 mph ENE4.8 kmh ENE 3.0 mph4.8 kmh 29.82 in1009.8 mb 0.06 in1.5 mm 0.00 in0.0 mm 0.08 in2.0 mm
12:45 AM 44.5°F6.9°C 43.2°F6.2°C 95% Calm Calm 4.0 mph6.4 kmh 29.82 in1009.8 mb 0.05 in1.3 mm 0.00 in0.0 mm 0.08 in2.0 mm
12:50 AM 44.5°F6.9°C 43.2°F6.2°C 95% 1.0 mph ENE1.6 kmh ENE 1.0 mph1.6 kmh 29.82 in1009.8 mb 0.05 in1.3 mm 0.00 in0.0 mm 0.08 in2.0 mm
01:04 AM 44.3°F6.8°C 43.0°F6.1°C 95% 3.0 mph NE4.8 kmh NE 7.0 mph11.3 kmh 29.82 in1009.8 mb 0.05 in1.3 mm 0.00 in0.0 mm 0.08 in2.0 mm
01:10 AM 44.2°F6.8°C 42.9°F6.1°C 95% 3.0 mph NE4.8 kmh NE 3.0 mph4.8 kmh 29.82 in1009.8 mb 0.06 in1.5 mm 0.10 in2.5 mm 0.09 in2.3 mm
01:25 AM 44.1°F6.7°C 42.8°F6.0°C 95% 2.0 mph ENE3.2 kmh ENE 5.0 mph8.0 kmh 29.81 in1009.5 mb 0.06 in1.5 mm 0.00 in0.0 mm 0.09 in2.3 mm
01:29 AM 44.1°F6.7°C 42.8°F6.0°C 95% 4.0 mph ENE6.4 kmh ENE 6.0 mph9.7 kmh 29.82 in1009.8 mb 0.06 in1.5 mm 0.00 in0.0 mm 0.09 in2.3 mm
01:45 AM 44.1°F6.7°C 42.8°F6.0°C 95% 5.0 mph NE8.0 kmh NE 6.0 mph9.7 kmh 29.81 in1009.5 mb 0.05 in1.3 mm 0.00 in0.0 mm 0.09 in2.3 mm
01:50 AM 44.1°F6.7°C 42.8°F6.0°C 95% 3.0 mph ENE4.8 kmh ENE 8.0 mph12.9 kmh 29.81 in1009.5 mb 0.05 in1.3 mm 0.00 in0.0 mm 0.09 in2.3 mm
02:05 AM 43.9°F6.6°C 42.6°F5.9°C 95% 3.0 mph ENE4.8 kmh ENE 9.0 mph14.5 kmh 29.80 in1009.1 mb 0.03 in0.8 mm 0.00 in0.0 mm 0.09 in2.3 mm
02:09 AM 43.9°F6.6°C 42.6°F5.9°C 95% 4.0 mph NE6.4 kmh NE 9.0 mph14.5 kmh 29.80 in1009.1 mb 0.03 in0.8 mm 0.00 in0.0 mm 0.09 in2.3 mm
02:25 AM 43.9°F6.6°C 42.6°F5.9°C 95% 3.0 mph E4.8 kmh E 5.0 mph8.0 kmh 29.80 in1009.1 mb 0.01 in0.3 mm 0.00 in0.0 mm 0.09 in2.3 mm
02:29 AM 43.9°F6.6°C 42.6°F5.9°C 95% 5.0 mph E8.0 kmh E 7.0 mph11.3 kmh 29.81 in1009.5 mb 0.01 in0.3 mm 0.00 in0.0 mm 0.09 in2.3 mm
02:45 AM 43.8°F6.6°C 42.5°F5.8°C 95% 3.0 mph ENE4.8 kmh ENE 5.0 mph8.0 kmh 29.80 in1009.1 mb 0.00 in0.0 mm 0.00 in0.0 mm 0.09 in2.3 mm
02:50 AM 43.9°F6.6°C 42.6°F5.9°C 95% 3.0 mph ENE4.8 kmh ENE 3.0 mph4.8 kmh 29.80 in1009.1 mb 0.00 in0.0 mm 0.00 in0.0 mm 0.09 in2.3 mm
03:05 AM 43.8°F6.6°C 42.5°F5.8°C 95% 2.0 mph E3.2 kmh E 4.0 mph6.4 kmh 29.80 in1009.1 mb 0.00 in0.0 mm 0.00 in0.0 mm 0.09 in2.3 mm
03:10 AM 43.9°F6.6°C 42.6°F5.9°C 95% 1.0 mph ENE1.6 kmh ENE 4.0 mph6.4 kmh 29.79 in1008.8 mb 0.00 in0.0 mm 0.00 in0.0 mm 0.09 in2.3 mm
03:25 AM 43.8°F6.6°C 42.5°F5.8°C 95% 1.0 mph NNE1.6 kmh NNE 7.0 mph11.3 kmh 29.78 in1008.5 mb 0.00 in0.0 mm 0.00 in0.0 mm 0.09 in2.3 mm
03:30 AM 43.8°F6.6°C 42.5°F5.8°C 95% 2.0 mph NE3.2 kmh NE 7.0 mph11.3 kmh 29.78 in1008.5 mb 0.00 in0.0 mm 0.00 in0.0 mm 0.09 in2.3 mm
03:45 AM 43.6°F6.4°C 42.3°F5.7°C 95% 1.0 mph NE1.6 kmh NE 6.0 mph9.7 kmh 29.77 in1008.1 mb 0.00 in0.0 mm 0.00 in0.0 mm 0.09 in2.3 mm
03:50 AM 43.6°F6.4°C 42.0°F5.6°C 94% 3.0 mph ENE4.8 kmh ENE 3.0 mph4.8 kmh 29.77 in1008.1 mb 0.00 in0.0 mm 0.00 in0.0 mm 0.09 in2.3 mm
04:05 AM 43.4°F6.3°C 42.1°F5.6°C 95% 1.0 mph NE1.6 kmh NE 5.0 mph8.0 kmh 29.76 in1007.8 mb 0.00 in0.0 mm 0.00 in0.0 mm 0.09 in2.3 mm
04:10 AM 43.4°F6.3°C 42.1°F5.6°C 95% 2.0 mph NE3.2 kmh NE 4.0 mph6.4 kmh 29.76 in1007.8 mb 0.00 in0.0 mm 0.00 in0.0 mm 0.09 in2.3 mm
04:25 AM 43.4°F6.3°C 42.1°F5.6°C 95% Calm Calm 6.0 mph9.7 kmh 29.76 in1007.8 mb 0.00 in0.0 mm 0.00 in0.0 mm 0.09 in2.3 mm
04:30 AM 43.5°F6.4°C 42.2°F5.7°C 95% 3.0 mph NE4.8 kmh NE 9.0 mph14.5 kmh 29.76 in1007.8 mb 0.00 in0.0 mm 0.00 in0.0 mm 0.09 in2.3 mm
04:45 AM 43.4°F6.3°C 41.8°F5.4°C 94% 3.0 mph NNE4.8 kmh NNE 5.0 mph8.0 kmh 29.76 in1007.8 mb 0.00 in0.0 mm 0.00 in0.0 mm 0.09 in2.3 mm
04:50 AM 43.4°F6.3°C 41.8°F5.4°C 94% 5.0 mph NE8.0 kmh NE 6.0 mph9.7 kmh 29.76 in1007.8 mb 0.00 in0.0 mm 0.00 in0.0 mm 0.09 in2.3 mm
05:05 AM 43.4°F6.3°C 41.8°F5.4°C 94% 3.0 mph N4.8 kmh N 7.0 mph11.3 kmh 29.75 in1007.5 mb 0.00 in0.0 mm 0.00 in0.0 mm 0.09 in2.3 mm
05:10 AM 43.4°F6.3°C 41.8°F5.4°C 94% 2.0 mph N3.2 kmh N 3.0 mph4.8 kmh 29.75 in1007.5 mb 0.00 in0.0 mm 0.00 in0.0 mm 0.09 in2.3 mm
05:25 AM 43.4°F6.3°C 41.8°F5.4°C 94% 2.0 mph NNE3.2 kmh NNE 8.0 mph12.9 kmh 29.75 in1007.5 mb 0.00 in0.0 mm 0.00 in0.0 mm 0.09 in2.3 mm
05:30 AM 43.5°F6.4°C 41.9°F5.5°C 94% 4.0 mph NNE6.4 kmh NNE 4.0 mph6.4 kmh 29.75 in1007.5 mb 0.00 in0.0 mm 0.00 in0.0 mm 0.09 in2.3 mm
05:44 AM 43.4°F6.3°C 41.8°F5.4°C 94% 2.0 mph NE3.2 kmh NE 3.0 mph4.8 kmh 29.75 in1007.5 mb 0.00 in0.0 mm 0.00 in0.0 mm 0.09 in2.3 mm
05:50 AM 43.4°F6.3°C 41.8°F5.4°C 94% 2.0 mph N3.2 kmh N 3.0 mph4.8 kmh 29.74 in1007.1 mb 0.00 in0.0 mm 0.00 in0.0 mm 0.09 in2.3 mm
06:04 AM 43.3°F6.3°C 41.7°F5.4°C 94% 2.0 mph ENE3.2 kmh ENE 5.0 mph8.0 kmh 29.75 in1007.5 mb 0.00 in0.0 mm 0.00 in0.0 mm 0.09 in2.3 mm
06:10 AM 43.3°F6.3°C 41.7°F5.4°C 94% 1.0 mph ENE1.6 kmh ENE 6.0 mph9.7 kmh 29.75 in1007.5 mb 0.00 in0.0 mm 0.00 in0.0 mm 0.09 in2.3 mm
06:24 AM 43.2°F6.2°C 41.6°F5.3°C 94% Calm Calm 3.0 mph4.8 kmh 29.75 in1007.5 mb 0.00 in0.0 mm 0.00 in0.0 mm 0.09 in2.3 mm
06:30 AM 43.2°F6.2°C 41.6°F5.3°C 94% 1.0 mph NE1.6 kmh NE 3.0 mph4.8 kmh 29.75 in1007.5 mb 0.00 in0.0 mm 0.00 in0.0 mm 0.09 in2.3 mm
06:45 AM 43.2°F6.2°C 41.6°F5.3°C 94% 2.0 mph NE3.2 kmh NE 4.0 mph6.4 kmh 29.75 in1007.5 mb 0.00 in0.0 mm 0.00 in0.0 mm 0.09 in2.3 mm
06:50 AM 43.2°F6.2°C 41.6°F5.3°C 94% Calm Calm 4.0 mph6.4 kmh 29.75 in1007.5 mb 0.00 in0.0 mm 0.00 in0.0 mm 0.09 in2.3 mm
07:05 AM 43.2°F6.2°C 41.6°F5.3°C 94% 1.0 mph NE1.6 kmh NE 3.0 mph4.8 kmh 29.75 in1007.5 mb 0.00 in0.0 mm 0.00 in0.0 mm 0.09 in2.3 mm
07:10 AM 43.3°F6.3°C 41.7°F5.4°C 94% Calm Calm 3.0 mph4.8 kmh 29.75 in1007.5 mb 0.00 in0.0 mm 0.00 in0.0 mm 0.09 in2.3 mm
07:25 AM 43.3°F6.3°C 41.7°F5.4°C 94% 2.0 mph NNE3.2 kmh NNE 3.0 mph4.8 kmh 29.75 in1007.5 mb 0.00 in0.0 mm 0.00 in0.0 mm 0.09 in2.3 mm
07:29 AM 43.4°F6.3°C 41.8°F5.4°C 94% Calm Calm 3.0 mph4.8 kmh 29.75 in1007.5 mb 0.00 in0.0 mm 0.00 in0.0 mm 0.09 in2.3 mm
07:45 AM 43.3°F6.3°C 41.7°F5.4°C 94% 3.0 mph ENE4.8 kmh ENE 3.0 mph4.8 kmh 29.75 in1007.5 mb 0.00 in0.0 mm 0.00 in0.0 mm 0.09 in2.3 mm
07:49 AM 43.4°F6.3°C 41.8°F5.4°C 94% 1.0 mph NE1.6 kmh NE 5.0 mph8.0 kmh 29.75 in1007.5 mb 0.00 in0.0 mm 0.00 in0.0 mm 0.09 in2.3 mm
08:05 AM 43.4°F6.3°C 41.8°F5.4°C 94% 1.0 mph NE1.6 kmh NE 2.0 mph3.2 kmh 29.75 in1007.5 mb 0.01 in0.3 mm 0.01 in0.3 mm 0.10 in2.5 mm
08:10 AM 43.4°F6.3°C 41.8°F5.4°C 94% Calm Calm 5.0 mph8.0 kmh 29.75 in1007.5 mb 0.01 in0.3 mm 0.00 in0.0 mm 0.10 in2.5 mm
08:25 AM 43.7°F6.5°C 42.1°F5.6°C 94% 2.0 mph NE3.2 kmh NE 5.0 mph8.0 kmh 29.75 in1007.5 mb 0.01 in0.3 mm 0.00 in0.0 mm 0.10 in2.5 mm
08:30 AM 43.8°F6.6°C 42.2°F5.7°C 94% Calm Calm 5.0 mph8.0 kmh 29.75 in1007.5 mb 0.01 in0.3 mm 0.00 in0.0 mm 0.10 in2.5 mm
08:45 AM 44.0°F6.7°C 42.4°F5.8°C 94% 1.0 mph NE1.6 kmh NE 5.0 mph8.0 kmh 29.75 in1007.5 mb 0.01 in0.3 mm 0.00 in0.0 mm 0.10 in2.5 mm
08:50 AM 43.9°F6.6°C 42.3°F5.7°C 94% 1.0 mph NE1.6 kmh NE 5.0 mph8.0 kmh 29.75 in1007.5 mb 0.01 in0.3 mm 0.00 in0.0 mm 0.10 in2.5 mm
09:05 AM 43.8°F6.6°C 42.2°F5.7°C 94% Calm Calm 3.0 mph4.8 kmh 29.75 in1007.5 mb 0.01 in0.3 mm 0.00 in0.0 mm 0.10 in2.5 mm
09:10 AM 43.9°F6.6°C 42.3°F5.7°C 94% Calm Calm 3.0 mph4.8 kmh 29.75 in1007.5 mb 0.01 in0.3 mm 0.00 in0.0 mm 0.10 in2.5 mm
09:25 AM 44.1°F6.7°C 42.5°F5.8°C 94% 1.0 mph NE1.6 kmh NE 2.0 mph3.2 kmh 29.75 in1007.5 mb 0.00 in0.0 mm 0.00 in0.0 mm 0.10 in2.5 mm
09:30 AM 44.1°F6.7°C 42.5°F5.8°C 94% 1.0 mph NE1.6 kmh NE 5.0 mph8.0 kmh 29.75 in1007.5 mb 0.00 in0.0 mm 0.00 in0.0 mm 0.10 in2.5 mm
09:45 AM 44.3°F6.8°C 42.7°F5.9°C 94% 6.0 mph NE9.7 kmh NE 6.0 mph9.7 kmh 29.75 in1007.5 mb 0.00 in0.0 mm 0.00 in0.0 mm 0.10 in2.5 mm
09:50 AM 44.3°F6.8°C 42.4°F5.8°C 93% 3.0 mph NE4.8 kmh NE 7.0 mph11.3 kmh 29.75 in1007.5 mb 0.00 in0.0 mm 0.00 in0.0 mm 0.10 in2.5 mm
10:05 AM 44.7°F7.1°C 42.8°F6.0°C 93% 1.0 mph NNE1.6 kmh NNE 4.0 mph6.4 kmh 29.76 in1007.8 mb 0.00 in0.0 mm 0.00 in0.0 mm 0.10 in2.5 mm
10:10 AM 44.9°F7.2°C 43.0°F6.1°C 93% Calm Calm 1.0 mph1.6 kmh 29.76 in1007.8 mb 0.00 in0.0 mm 0.00 in0.0 mm 0.10 in2.5 mm
10:25 AM 45.5°F7.5°C 43.6°F6.4°C 93% 3.0 mph NE4.8 kmh NE 4.0 mph6.4 kmh 29.76 in1007.8 mb 0.00 in0.0 mm 0.00 in0.0 mm 0.10 in2.5 mm
10:30 AM 45.8°F7.7°C 43.9°F6.6°C 93% 1.0 mph ENE1.6 kmh ENE 4.0 mph6.4 kmh 29.76 in1007.8 mb 0.00 in0.0 mm 0.00 in0.0 mm 0.10 in2.5 mm
10:45 AM 46.5°F8.1°C 44.6°F7.0°C 93% 3.0 mph ENE4.8 kmh ENE 4.0 mph6.4 kmh 29.76 in1007.8 mb 0.00 in0.0 mm 0.00 in0.0 mm 0.10 in2.5 mm
10:49 AM 46.8°F8.2°C 44.9°F7.2°C 93% 5.0 mph ESE8.0 kmh ESE 7.0 mph11.3 kmh 29.76 in1007.8 mb 0.00 in0.0 mm 0.00 in0.0 mm 0.10 in2.5 mm
11:05 AM 47.6°F8.7°C 44.5°F6.9°C 89% 4.0 mph E6.4 kmh E 9.0 mph14.5 kmh 29.76 in1007.8 mb 0.00 in0.0 mm 0.00 in0.0 mm 0.10 in2.5 mm
11:10 AM 47.9°F8.8°C 44.8°F7.1°C 89% 4.0 mph E6.4 kmh E 4.0 mph6.4 kmh 29.76 in1007.8 mb 0.00 in0.0 mm 0.00 in0.0 mm 0.10 in2.5 mm
11:25 AM 48.3°F9.1°C 44.3°F6.8°C 86% 5.0 mph E8.0 kmh E 10.0 mph16.1 kmh 29.77 in1008.1 mb 0.00 in0.0 mm 0.00 in0.0 mm 0.10 in2.5 mm
11:29 AM 48.4°F9.1°C 44.1°F6.7°C 85% 5.0 mph SE8.0 kmh SE 10.0 mph16.1 kmh 29.77 in1008.1 mb 0.00 in0.0 mm 0.00 in0.0 mm 0.10 in2.5 mm
11:45 AM 48.8°F9.3°C 44.8°F7.1°C 86% 9.0 mph SE14.5 kmh SE 9.0 mph14.5 kmh 29.77 in1008.1 mb 0.00 in0.0 mm 0.00 in0.0 mm 0.10 in2.5 mm
11:50 AM 49.1°F9.5°C 45.1°F7.3°C 86% 5.0 mph SE8.0 kmh SE 10.0 mph16.1 kmh 29.77 in1008.1 mb 0.00 in0.0 mm 0.00 in0.0 mm 0.10 in2.5 mm
12:05 PM 49.4°F9.7°C 45.1°F7.3°C 85% 5.0 mph SE8.0 kmh SE 9.0 mph14.5 kmh 29.77 in1008.1 mb 0.00 in0.0 mm 0.00 in0.0 mm 0.10 in2.5 mm
12:09 PM 49.5°F9.7°C 44.9°F7.2°C 84% 10.0 mph SE16.1 kmh SE 10.0 mph16.1 kmh 29.77 in1008.1 mb 0.00 in0.0 mm 0.00 in0.0 mm 0.10 in2.5 mm
12:25 PM 49.7°F9.8°C 45.1°F7.3°C 84% 3.0 mph S4.8 kmh S 11.0 mph17.7 kmh 29.77 in1008.1 mb 0.00 in0.0 mm 0.00 in0.0 mm 0.10 in2.5 mm
12:30 PM 49.8°F9.9°C 45.2°F7.3°C 84% 5.0 mph SSE8.0 kmh SSE 11.0 mph17.7 kmh 29.77 in1008.1 mb 0.00 in0.0 mm 0.00 in0.0 mm 0.10 in2.5 mm
12:45 PM 50.5°F10.3°C 45.5°F7.5°C 83% 7.0 mph SE11.3 kmh SE 12.0 mph19.3 kmh 29.77 in1008.1 mb 0.00 in0.0 mm 0.00 in0.0 mm 0.10 in2.5 mm
12:50 PM 50.5°F10.3°C 45.2°F7.3°C 82% 7.0 mph SE11.3 kmh SE 12.0 mph19.3 kmh 29.77 in1008.1 mb 0.00 in0.0 mm 0.00 in0.0 mm 0.10 in2.5 mm
01:05 PM 50.6°F10.3°C 45.3°F7.4°C 82% 8.0 mph SSE12.9 kmh SSE 8.0 mph12.9 kmh 29.77 in1008.1 mb 0.00 in0.0 mm 0.00 in0.0 mm 0.10 in2.5 mm
01:09 PM 50.7°F10.4°C 45.4°F7.4°C 82% 5.0 mph SSW8.0 kmh SSW 10.0 mph16.1 kmh 29.77 in1008.1 mb 0.00 in0.0 mm 0.00 in0.0 mm 0.10 in2.5 mm
01:24 PM 51.0°F10.6°C 45.1°F7.3°C 80% 4.0 mph SSE6.4 kmh SSE 17.0 mph27.4 kmh 29.77 in1008.1 mb 0.00 in0.0 mm 0.00 in0.0 mm 0.10 in2.5 mm
01:35 PM 51.0°F10.6°C 45.1°F7.3°C 80% 2.0 mph SE3.2 kmh SE 8.0 mph12.9 kmh 29.77 in1008.1 mb 0.00 in0.0 mm 0.00 in0.0 mm 0.10 in2.5 mm
01:40 PM 51.0°F10.6°C 45.1°F7.3°C 80% 4.0 mph SSE6.4 kmh SSE 4.0 mph6.4 kmh 29.77 in1008.1 mb 0.00 in0.0 mm 0.00 in0.0 mm 0.10 in2.5 mm
01:55 PM 51.4°F10.8°C 45.8°F7.7°C 81% 8.0 mph SSW12.9 kmh SSW 11.0 mph17.7 kmh 29.78 in1008.5 mb 0.00 in0.0 mm 0.00 in0.0 mm 0.10 in2.5 mm
01:59 PM 51.5°F10.8°C 45.9°F7.7°C 81% 5.0 mph S8.0 kmh S 15.0 mph24.1 kmh 29.77 in1008.1 mb 0.00 in0.0 mm 0.00 in0.0 mm 0.10 in2.5 mm
02:15 PM 51.9°F11.1°C 45.9°F7.7°C 80% 3.0 mph SE4.8 kmh SE 12.0 mph19.3 kmh 29.77 in1008.1 mb 0.00 in0.0 mm 0.00 in0.0 mm 0.10 in2.5 mm
02:30 PM 52.4°F11.3°C 46.1°F7.8°C 79% 3.0 mph SSW4.8 kmh SSW 12.0 mph19.3 kmh 29.77 in1008.1 mb 0.00 in0.0 mm 0.00 in0.0 mm 0.10 in2.5 mm
02:45 PM 53.2°F11.8°C 46.5°F8.1°C 78% 9.0 mph SE14.5 kmh SE 17.0 mph27.4 kmh 29.76 in1007.8 mb 0.00 in0.0 mm 0.00 in0.0 mm 0.10 in2.5 mm
02:50 PM 53.6°F12.0°C 46.2°F7.9°C 76% 4.0 mph S6.4 kmh S 17.0 mph27.4 kmh 29.76 in1007.8 mb 0.00 in0.0 mm 0.00 in0.0 mm 0.10 in2.5 mm
03:05 PM 54.1°F12.3°C 46.4°F8.0°C 75% 7.0 mph SSE11.3 kmh SSE 18.0 mph29.0 kmh 29.76 in1007.8 mb 0.00 in0.0 mm 0.00 in0.0 mm 0.10 in2.5 mm
03:10 PM 54.2°F12.3°C 46.1°F7.8°C 74% 4.0 mph SSE6.4 kmh SSE 18.0 mph29.0 kmh 29.76 in1007.8 mb 0.00 in0.0 mm 0.00 in0.0 mm 0.10 in2.5 mm
03:25 PM 53.8°F12.1°C 45.4°F7.4°C 73% 6.0 mph S9.7 kmh S 14.0 mph22.5 kmh 29.76 in1007.8 mb 0.00 in0.0 mm 0.00 in0.0 mm 0.10 in2.5 mm
03:30 PM 53.8°F12.1°C 45.4°F7.4°C 73% 8.0 mph SSE12.9 kmh SSE 8.0 mph12.9 kmh 29.76 in1007.8 mb 0.00 in0.0 mm 0.00 in0.0 mm 0.10 in2.5 mm
03:45 PM 52.7°F11.5°C 44.3°F6.8°C 73% 4.0 mph SW6.4 kmh SW 12.0 mph19.3 kmh 29.77 in1008.1 mb 0.00 in0.0 mm 0.00 in0.0 mm 0.10 in2.5 mm
03:50 PM 52.6°F11.4°C 44.6°F7.0°C 74% 4.0 mph SSE6.4 kmh SSE 18.0 mph29.0 kmh 29.76 in1007.8 mb 0.00 in0.0 mm 0.00 in0.0 mm 0.10 in2.5 mm
04:05 PM 53.5°F11.9°C 45.1°F7.3°C 73% 9.0 mph ESE14.5 kmh ESE 19.0 mph30.6 kmh 29.77 in1008.1 mb 0.00 in0.0 mm 0.00 in0.0 mm 0.10 in2.5 mm
04:10 PM 53.1°F11.7°C 44.3°F6.8°C 72% 4.0 mph SSW6.4 kmh SSW 19.0 mph30.6 kmh 29.77 in1008.1 mb 0.00 in0.0 mm 0.00 in0.0 mm 0.10 in2.5 mm
04:24 PM 52.3°F11.3°C 44.6°F7.0°C 75% 3.0 mph SSE4.8 kmh SSE 15.0 mph24.1 kmh 29.78 in1008.5 mb 0.00 in0.0 mm 0.00 in0.0 mm 0.10 in2.5 mm
04:30 PM 52.1°F11.2°C 44.8°F7.1°C 76% 6.0 mph ESE9.7 kmh ESE 15.0 mph24.1 kmh 29.78 in1008.5 mb 0.00 in0.0 mm 0.00 in0.0 mm 0.10 in2.5 mm
04:45 PM 51.7°F10.9°C 45.4°F7.4°C 79% 7.0 mph SE11.3 kmh SE 13.0 mph20.9 kmh 29.78 in1008.5 mb 0.00 in0.0 mm 0.00 in0.0 mm 0.10 in2.5 mm
04:50 PM 51.6°F10.9°C 46.0°F7.8°C 81% 2.0 mph S3.2 kmh S 3.0 mph4.8 kmh 29.78 in1008.5 mb 0.00 in0.0 mm 0.00 in0.0 mm 0.10 in2.5 mm
05:05 PM 51.1°F10.6°C 46.1°F7.8°C 83% 5.0 mph SSE8.0 kmh SSE 10.0 mph16.1 kmh 29.78 in1008.5 mb 0.00 in0.0 mm 0.00 in0.0 mm 0.10 in2.5 mm
05:10 PM 51.0°F10.6°C 46.0°F7.8°C 83% 2.0 mph SSE3.2 kmh SSE 12.0 mph19.3 kmh 29.78 in1008.5 mb 0.00 in0.0 mm 0.00 in0.0 mm 0.10 in2.5 mm
05:25 PM 50.9°F10.5°C 45.9°F7.7°C 83% 3.0 mph SSE4.8 kmh SSE 8.0 mph12.9 kmh 29.79 in1008.8 mb 0.00 in0.0 mm 0.00 in0.0 mm 0.10 in2.5 mm
05:29 PM 50.9°F10.5°C 45.6°F7.6°C 82% 7.0 mph SSE11.3 kmh SSE 13.0 mph20.9 kmh 29.79 in1008.8 mb 0.00 in0.0 mm 0.00 in0.0 mm 0.10 in2.5 mm
05:45 PM 51.0°F10.6°C 45.7°F7.6°C 82% 6.0 mph SSE9.7 kmh SSE 11.0 mph17.7 kmh 29.79 in1008.8 mb 0.00 in0.0 mm 0.00 in0.0 mm 0.10 in2.5 mm
05:50 PM 50.9°F10.5°C 46.3°F7.9°C 84% 7.0 mph ESE11.3 kmh ESE 11.0 mph17.7 kmh 29.79 in1008.8 mb 0.01 in0.3 mm 0.12 in3.0 mm 0.11 in2.8 mm
06:05 PM 50.3°F10.2°C 46.0°F7.8°C 85% 3.0 mph SSW4.8 kmh SSW 12.0 mph19.3 kmh 29.79 in1008.8 mb 0.01 in0.3 mm 0.00 in0.0 mm 0.11 in2.8 mm
06:10 PM 50.1°F10.1°C 45.8°F7.7°C 85% 2.0 mph S3.2 kmh S 12.0 mph19.3 kmh 29.79 in1008.8 mb 0.01 in0.3 mm 0.00 in0.0 mm 0.11 in2.8 mm
06:25 PM 49.9°F9.9°C 45.6°F7.6°C 85% 2.0 mph SSE3.2 kmh SSE 13.0 mph20.9 kmh 29.80 in1009.1 mb 0.01 in0.3 mm 0.00 in0.0 mm 0.11 in2.8 mm
06:30 PM 49.8°F9.9°C 45.5°F7.5°C 85% 2.0 mph SE3.2 kmh SE 13.0 mph20.9 kmh 29.80 in1009.1 mb 0.01 in0.3 mm 0.00 in0.0 mm 0.11 in2.8 mm
06:44 PM 49.8°F9.9°C 45.5°F7.5°C 85% 5.0 mph ESE8.0 kmh ESE 6.0 mph9.7 kmh 29.80 in1009.1 mb 0.01 in0.3 mm 0.00 in0.0 mm 0.11 in2.8 mm
06:50 PM 49.7°F9.8°C 45.4°F7.4°C 85% 11.0 mph SE17.7 kmh SE 11.0 mph17.7 kmh 29.80 in1009.1 mb 0.01 in0.3 mm 0.00 in0.0 mm 0.11 in2.8 mm
07:05 PM 49.8°F9.9°C 45.5°F7.5°C 85% 3.0 mph S4.8 kmh S 16.0 mph25.7 kmh 29.81 in1009.5 mb 0.00 in0.0 mm 0.00 in0.0 mm 0.11 in2.8 mm
07:10 PM 49.8°F9.9°C 45.5°F7.5°C 85% 2.0 mph S3.2 kmh S 16.0 mph25.7 kmh 29.81 in1009.5 mb 0.00 in0.0 mm 0.00 in0.0 mm 0.11 in2.8 mm
07:25 PM 49.3°F9.6°C 45.6°F7.6°C 87% 13.0 mph SW20.9 kmh SW 18.0 mph29.0 kmh 29.82 in1009.8 mb 0.02 in0.5 mm 0.08 in2.0 mm 0.13 in3.3 mm
07:29 PM 48.9°F9.4°C 44.9°F7.2°C 86% 4.0 mph WSW6.4 kmh WSW 18.0 mph29.0 kmh 29.83 in1010.2 mb 0.03 in0.8 mm 0.15 in3.8 mm 0.14 in3.6 mm
07:45 PM 48.3°F9.1°C 45.2°F7.3°C 89% 3.0 mph SW4.8 kmh SW 3.0 mph4.8 kmh 29.84 in1010.5 mb 0.03 in0.8 mm 0.00 in0.0 mm 0.14 in3.6 mm
07:50 PM 48.1°F8.9°C 45.3°F7.4°C 90% Calm Calm 4.0 mph6.4 kmh 29.84 in1010.5 mb 0.03 in0.8 mm 0.00 in0.0 mm 0.14 in3.6 mm
08:04 PM 47.7°F8.7°C 45.2°F7.3°C 91% Calm Calm 3.0 mph4.8 kmh 29.84 in1010.5 mb 0.03 in0.8 mm 0.00 in0.0 mm 0.14 in3.6 mm
08:09 PM 47.6°F8.7°C 45.1°F7.3°C 91% Calm Calm 3.0 mph4.8 kmh 29.84 in1010.5 mb 0.03 in0.8 mm 0.00 in0.0 mm 0.14 in3.6 mm
08:24 PM 47.4°F8.6°C 45.2°F7.3°C 92% 1.0 mph SW1.6 kmh SW 4.0 mph6.4 kmh 29.85 in1010.8 mb 0.03 in0.8 mm 0.00 in0.0 mm 0.14 in3.6 mm
08:30 PM 47.3°F8.5°C 44.8°F7.1°C 91% 3.0 mph SE4.8 kmh SE 5.0 mph8.0 kmh 29.85 in1010.8 mb 0.03 in0.8 mm 0.00 in0.0 mm 0.14 in3.6 mm
08:45 PM 47.1°F8.4°C 44.9°F7.2°C 92% Calm Calm 1.0 mph1.6 kmh 29.85 in1010.8 mb 0.00 in0.0 mm 0.00 in0.0 mm 0.14 in3.6 mm
08:50 PM 47.0°F8.3°C 44.8°F7.1°C 92% Calm Calm 1.0 mph1.6 kmh 29.86 in1011.2 mb 0.00 in0.0 mm 0.00 in0.0 mm 0.14 in3.6 mm
09:05 PM 46.8°F8.2°C 44.9°F7.2°C 93% 2.0 mph SE3.2 kmh SE 4.0 mph6.4 kmh 29.86 in1011.2 mb 0.00 in0.0 mm 0.00 in0.0 mm 0.14 in3.6 mm
09:09 PM 46.8°F8.2°C 44.9°F7.2°C 93% 2.0 mph SE3.2 kmh SE 4.0 mph6.4 kmh 29.87 in1011.5 mb 0.00 in0.0 mm 0.00 in0.0 mm 0.14 in3.6 mm
09:25 PM 46.6°F8.1°C 44.7°F7.1°C 93% Calm Calm 3.0 mph4.8 kmh 29.87 in1011.5 mb 0.00 in0.0 mm 0.00 in0.0 mm 0.14 in3.6 mm
09:29 PM 46.5°F8.1°C 44.6°F7.0°C 93% 2.0 mph SE3.2 kmh SE 3.0 mph4.8 kmh 29.88 in1011.9 mb 0.00 in0.0 mm 0.00 in0.0 mm 0.14 in3.6 mm
09:45 PM 46.1°F7.8°C 44.2°F6.8°C 93% Calm Calm -- 29.88 in1011.9 mb 0.00 in0.0 mm 0.00 in0.0 mm 0.14 in3.6 mm
09:50 PM 46.0°F7.8°C 44.1°F6.7°C 93% Calm Calm -- 29.88 in1011.9 mb 0.00 in0.0 mm 0.00 in0.0 mm 0.14 in3.6 mm
10:05 PM 45.6°F7.6°C 43.7°F6.5°C 93% 1.0 mph SE1.6 kmh SE 1.0 mph1.6 kmh 29.90 in1012.5 mb 0.00 in0.0 mm 0.00 in0.0 mm 0.14 in3.6 mm
10:10 PM 45.5°F7.5°C 43.6°F6.4°C 93% Calm Calm 1.0 mph1.6 kmh 29.90 in1012.5 mb 0.00 in0.0 mm 0.00 in0.0 mm 0.14 in3.6 mm
10:25 PM 45.3°F7.4°C 43.7°F6.5°C 94% 3.0 mph SE4.8 kmh SE 5.0 mph8.0 kmh 29.91 in1012.9 mb 0.00 in0.0 mm 0.00 in0.0 mm 0.14 in3.6 mm
10:30 PM 45.3°F7.4°C 43.7°F6.5°C 94% 2.0 mph SE3.2 kmh SE 5.0 mph8.0 kmh 29.91 in1012.9 mb 0.00 in0.0 mm 0.00 in0.0 mm 0.14 in3.6 mm
10:45 PM 45.4°F7.4°C 43.5°F6.4°C 93% 4.0 mph ESE6.4 kmh ESE 8.0 mph12.9 kmh 29.92 in1013.2 mb 0.00 in0.0 mm 0.00 in0.0 mm 0.14 in3.6 mm
10:50 PM 45.4°F7.4°C 43.5°F6.4°C 93% 6.0 mph SE9.7 kmh SE 8.0 mph12.9 kmh 29.92 in1013.2 mb 0.00 in0.0 mm 0.00 in0.0 mm 0.14 in3.6 mm
11:05 PM 45.4°F7.4°C 43.5°F6.4°C 93% 8.0 mph SE12.9 kmh SE 8.0 mph12.9 kmh 29.93 in1013.5 mb 0.00 in0.0 mm 0.00 in0.0 mm 0.14 in3.6 mm
11:10 PM 45.5°F7.5°C 43.6°F6.4°C 93% 6.0 mph SE9.7 kmh SE 6.0 mph9.7 kmh 29.93 in1013.5 mb 0.00 in0.0 mm 0.00 in0.0 mm 0.14 in3.6 mm
11:25 PM 45.6°F7.6°C 43.7°F6.5°C 93% 3.0 mph SE4.8 kmh SE 10.0 mph16.1 kmh 29.93 in1013.5 mb 0.00 in0.0 mm 0.00 in0.0 mm 0.14 in3.6 mm
11:30 PM 45.6°F7.6°C 43.7°F6.5°C 93% 5.0 mph ESE8.0 kmh ESE 10.0 mph16.1 kmh 29.93 in1013.5 mb 0.00 in0.0 mm 0.00 in0.0 mm 0.14 in3.6 mm
11:44 PM 45.7°F7.6°C 43.5°F6.4°C 92% 5.0 mph ESE8.0 kmh ESE 13.0 mph20.9 kmh 29.94 in1013.9 mb 0.00 in0.0 mm 0.00 in0.0 mm 0.14 in3.6 mm
11:50 PM 45.7°F7.6°C 43.5°F6.4°C 92% 6.0 mph SSE9.7 kmh SSE 6.0 mph9.7 kmh 29.94 in1013.9 mb 0.00 in0.0 mm 0.00 in0.0 mm 0.14 in3.6 mm